createdAt,value
2023-05-22T00:01:52.171Z,92.00
2023-05-22T00:04:21.759Z,92.57
2023-05-22T00:06:49.488Z,92.48
2023-05-22T00:09:16.759Z,92.85
2023-05-22T00:11:43.685Z,92.88
2023-05-22T00:14:10.547Z,93.66
2023-05-22T00:16:37.465Z,93.73
2023-05-22T00:19:04.678Z,93.43
2023-05-22T00:21:35.174Z,93.59
2023-05-22T00:24:02.653Z,94.76
2023-05-22T00:26:29.550Z,94.65
2023-05-22T00:28:56.329Z,93.59
2023-05-22T00:31:24.095Z,94.35
2023-05-22T00:33:51.017Z,94.61
2023-05-22T00:36:19.043Z,95.65
2023-05-22T00:38:46.589Z,94.10
2023-05-22T00:41:13.835Z,93.78
2023-05-22T00:43:40.711Z,95.02
2023-05-22T00:46:10.321Z,95.38
2023-05-22T00:48:37.145Z,95.83
2023-05-22T00:51:04.440Z,96.21
2023-05-22T00:53:31.940Z,96.25
2023-05-22T00:55:59.846Z,95.43
2023-05-22T00:58:27.673Z,95.87
2023-05-22T01:00:55.851Z,95.43
2023-05-22T01:03:27.218Z,95.63
2023-05-22T01:05:54.873Z,96.24
2023-05-22T01:08:22.149Z,95.85
2023-05-22T01:10:54.698Z,95.68
2023-05-22T01:13:34.715Z,96.29
2023-05-22T01:16:13.409Z,97.40
2023-05-22T01:18:46.504Z,97.47
2023-05-22T01:21:22.542Z,99.01
2023-05-22T01:24:48.589Z,99.43
2023-05-22T01:27:39.360Z,98.67
2023-05-22T01:30:27.127Z,98.94
2023-05-22T01:32:58.424Z,99.25
2023-05-22T01:35:26.445Z,100.00
2023-05-22T01:37:54.922Z,99.97
2023-05-22T01:40:22.593Z,99.47
2023-05-22T01:42:49.951Z,99.85
2023-05-22T01:45:16.809Z,100.00
2023-05-22T01:47:43.967Z,100.00
2023-05-22T01:50:11.832Z,100.00
2023-05-22T01:52:54.240Z,100.00
2023-05-22T01:55:40.595Z,100.00
2023-05-22T01:58:18.051Z,100.00
2023-05-22T02:00:47.343Z,100.00
2023-05-22T02:03:19.472Z,100.00
2023-05-22T02:05:52.136Z,100.00
2023-05-22T02:08:21.490Z,100.00
2023-05-22T02:10:50.984Z,100.00
2023-05-22T02:13:18.462Z,100.00
2023-05-22T02:15:47.232Z,100.00
2023-05-22T02:18:14.174Z,100.00
2023-05-22T02:20:42.017Z,100.00
2023-05-22T02:23:09.501Z,100.00
2023-05-22T02:25:36.352Z,100.00
2023-05-22T02:28:03.184Z,100.00
2023-05-22T02:30:30.033Z,100.00
2023-05-22T02:32:58.643Z,100.00
2023-05-22T02:35:25.515Z,100.00
2023-05-22T02:37:52.797Z,100.00
2023-05-22T02:40:19.627Z,100.00
2023-05-22T02:42:46.402Z,100.00
2023-05-22T02:45:13.334Z,100.00
2023-05-22T02:47:40.252Z,100.00
2023-05-22T02:50:07.903Z,100.00
2023-05-22T02:52:35.442Z,100.00
2023-05-22T02:55:02.282Z,100.00
2023-05-22T02:57:29.022Z,100.00
2023-05-22T02:59:55.841Z,100.00
2023-05-22T03:02:22.615Z,100.00
2023-05-22T03:04:49.353Z,100.00
2023-05-22T03:07:16.237Z,100.00
2023-05-22T03:09:43.219Z,100.00
2023-05-22T03:12:10.393Z,100.00
2023-05-22T03:14:37.183Z,100.00
2023-05-22T03:17:04.331Z,100.00
2023-05-22T03:19:31.419Z,100.00
2023-05-22T03:21:58.370Z,100.00
2023-05-22T03:24:25.164Z,100.00
2023-05-22T03:26:51.960Z,100.00
2023-05-22T03:29:18.907Z,100.00
2023-05-22T03:31:45.748Z,100.00
2023-05-22T03:34:12.747Z,100.00
2023-05-22T03:36:39.637Z,100.00
2023-05-22T03:39:06.654Z,100.00
2023-05-22T03:41:33.481Z,100.00
2023-05-22T03:44:00.329Z,100.00
2023-05-22T03:46:27.179Z,100.00
2023-05-22T03:48:54.013Z,100.00
2023-05-22T03:51:21.005Z,100.00
2023-05-22T03:53:47.904Z,100.00
2023-05-22T03:56:14.749Z,100.00
2023-05-22T03:58:41.577Z,100.00
2023-05-22T04:01:10.212Z,100.00
2023-05-22T04:03:40.141Z,100.00
2023-05-22T04:06:07.841Z,100.00
2023-05-22T04:08:35.038Z,100.00
2023-05-22T04:11:03.396Z,100.00
2023-05-22T04:13:31.613Z,100.00
2023-05-22T04:15:58.772Z,100.00
2023-05-22T04:18:25.633Z,100.00
2023-05-22T04:20:52.475Z,100.00
2023-05-22T04:23:19.265Z,100.00
2023-05-22T04:25:48.159Z,100.00
2023-05-22T04:28:17.774Z,100.00
2023-05-22T04:30:45.042Z,100.00
2023-05-22T04:33:12.967Z,100.00
2023-05-22T04:35:41.061Z,100.00
2023-05-22T04:38:08.262Z,100.00
2023-05-22T04:40:35.284Z,100.00
2023-05-22T04:43:02.112Z,100.00
2023-05-22T04:45:29.164Z,100.00
2023-05-22T04:47:56.547Z,100.00
2023-05-22T04:50:24.255Z,99.61
2023-05-22T04:52:51.210Z,98.89
2023-05-22T04:55:19.508Z,98.45
2023-05-22T04:57:47.532Z,97.94
2023-05-22T05:00:17.032Z,97.48
2023-05-22T05:02:44.172Z,96.39
2023-05-22T05:05:11.299Z,96.38
2023-05-22T05:07:39.541Z,96.22
2023-05-22T05:10:07.590Z,95.12
2023-05-22T05:12:34.699Z,94.88
2023-05-22T05:15:01.995Z,95.54
2023-05-22T05:17:29.130Z,94.31
2023-05-22T05:19:56.028Z,93.54
2023-05-22T05:22:23.204Z,92.29
2023-05-22T05:24:50.093Z,92.03
2023-05-22T05:27:17.159Z,91.84
2023-05-22T05:29:44.062Z,91.31
2023-05-22T05:32:12.787Z,88.62
2023-05-22T05:34:39.669Z,88.04
2023-05-22T05:37:06.504Z,88.07
2023-05-22T05:39:33.597Z,86.76
2023-05-22T05:42:00.578Z,85.34
2023-05-22T05:44:27.509Z,86.30
2023-05-22T05:46:54.987Z,84.61
2023-05-22T05:49:22.556Z,83.00
2023-05-22T05:51:49.352Z,81.98
2023-05-22T05:54:16.271Z,81.48
2023-05-22T05:56:43.130Z,81.54
2023-05-22T05:59:10.200Z,81.42
2023-05-22T06:01:38.837Z,81.53
2023-05-22T06:04:05.791Z,80.83
2023-05-22T06:06:36.618Z,79.87
2023-05-22T06:09:06.524Z,78.05
2023-05-22T06:11:34.206Z,76.45
2023-05-22T06:14:05.266Z,76.19
2023-05-22T06:16:32.230Z,76.45
2023-05-22T06:19:00.025Z,76.44
2023-05-22T06:21:27.085Z,73.38
2023-05-22T06:23:53.903Z,72.08
2023-05-22T06:26:20.742Z,71.64
2023-05-22T06:28:47.549Z,70.64
2023-05-22T06:31:14.679Z,69.71
2023-05-22T06:33:43.515Z,68.91
2023-05-22T06:36:14.409Z,68.19
2023-05-22T06:38:41.238Z,67.17
2023-05-22T06:41:08.282Z,66.29
2023-05-22T06:43:35.198Z,64.62
2023-05-22T06:46:02.139Z,65.30
2023-05-22T06:48:29.066Z,63.70
2023-05-22T06:50:56.025Z,63.04
2023-05-22T06:53:24.129Z,62.51
2023-05-22T06:55:51.330Z,61.18
2023-05-22T06:58:18.965Z,61.82
2023-05-22T07:00:45.879Z,61.38
2023-05-22T07:03:12.896Z,61.06
2023-05-22T07:05:39.852Z,60.94
2023-05-22T07:08:08.640Z,61.99
2023-05-22T07:10:35.470Z,59.71
2023-05-22T07:13:02.562Z,59.73
2023-05-22T07:15:29.642Z,59.11
2023-05-22T07:17:56.554Z,58.57
2023-05-22T07:20:23.573Z,57.43
2023-05-22T07:22:50.348Z,56.49
2023-05-22T07:25:17.216Z,55.38
2023-05-22T07:27:44.199Z,54.87
2023-05-22T07:30:11.495Z,53.37
2023-05-22T07:32:38.681Z,53.16
2023-05-22T07:35:06.042Z,52.16
2023-05-22T07:37:33.327Z,50.64
2023-05-22T07:40:00.210Z,51.01
2023-05-22T07:42:27.609Z,50.70
2023-05-22T07:44:54.408Z,49.97
2023-05-22T07:47:21.354Z,50.75
2023-05-22T07:49:48.251Z,49.87
2023-05-22T07:52:14.990Z,50.52
2023-05-22T07:54:43.491Z,49.28
2023-05-22T07:57:12.744Z,48.82
2023-05-22T07:59:39.508Z,48.59
2023-05-22T08:02:08.717Z,48.38
2023-05-22T08:04:35.796Z,47.97
2023-05-22T08:07:02.815Z,47.29
2023-05-22T08:09:29.705Z,45.42
2023-05-22T08:11:56.691Z,45.07
2023-05-22T08:14:23.479Z,46.28
2023-05-22T08:16:50.320Z,48.75
2023-05-22T08:19:17.267Z,45.09
2023-05-22T08:21:44.199Z,42.83
2023-05-22T08:24:11.030Z,45.60
2023-05-22T08:26:39.008Z,46.69
2023-05-22T08:29:05.944Z,43.22
2023-05-22T08:31:34.634Z,45.48
2023-05-22T08:34:05.206Z,44.59
2023-05-22T08:36:34.419Z,44.90
2023-05-22T08:39:01.744Z,44.73
2023-05-22T08:41:29.960Z,45.13
2023-05-22T08:43:57.304Z,43.78
2023-05-22T08:46:29.356Z,42.28
2023-05-22T08:48:58.174Z,40.02
2023-05-22T08:51:29.654Z,39.10
2023-05-22T08:53:57.579Z,41.56
2023-05-22T08:56:26.063Z,41.33
2023-05-22T08:58:55.227Z,44.72
2023-05-22T09:01:22.947Z,43.60
2023-05-22T09:03:51.610Z,43.66
2023-05-22T09:06:18.878Z,43.16
2023-05-22T09:08:46.370Z,43.22
2023-05-22T09:11:13.493Z,43.70
2023-05-22T09:13:41.587Z,42.99
2023-05-22T09:16:15.225Z,41.21
2023-05-22T09:18:42.843Z,41.84
2023-05-22T09:21:25.840Z,43.09
2023-05-22T09:24:01.769Z,42.90
2023-05-22T09:26:29.807Z,43.14
2023-05-22T09:29:00.264Z,42.54
2023-05-22T09:31:32.096Z,41.74
2023-05-22T09:33:59.954Z,41.62
2023-05-22T09:36:34.272Z,42.18
2023-05-22T09:39:02.211Z,42.49
2023-05-22T09:41:30.902Z,42.91
2023-05-22T09:43:59.745Z,40.40
2023-05-22T09:46:27.922Z,39.90
2023-05-22T09:48:54.868Z,42.23
2023-05-22T09:51:26.833Z,42.33
2023-05-22T09:54:02.532Z,42.08
2023-05-22T09:56:39.362Z,41.94
2023-05-22T09:59:09.818Z,41.37
2023-05-22T10:01:39.384Z,40.28
2023-05-22T10:04:09.082Z,40.33
2023-05-22T10:06:37.353Z,40.03
2023-05-22T10:09:07.908Z,39.63
2023-05-22T10:11:36.133Z,39.43
2023-05-22T10:14:05.249Z,39.34
2023-05-22T10:16:34.460Z,39.64
2023-05-22T10:19:01.477Z,39.63
2023-05-22T10:21:30.427Z,38.75
2023-05-22T10:23:59.377Z,38.61
2023-05-22T10:26:26.692Z,39.88
2023-05-22T10:29:18.284Z,39.14
2023-05-22T10:31:56.049Z,39.07
2023-05-22T10:34:47.328Z,38.46
2023-05-22T10:37:45.544Z,39.34
2023-05-22T10:40:22.317Z,36.58
2023-05-22T10:42:49.233Z,37.63
2023-05-22T10:45:17.007Z,38.01
2023-05-22T10:47:43.960Z,38.31
2023-05-22T10:50:12.193Z,36.69
2023-05-22T10:52:40.548Z,38.45
2023-05-22T10:55:09.465Z,37.51
2023-05-22T10:57:40.253Z,37.54
2023-05-22T11:00:16.008Z,37.15
2023-05-22T11:02:44.803Z,35.47
2023-05-22T11:05:25.775Z,34.99
2023-05-22T11:07:52.781Z,35.43
2023-05-22T11:10:53.207Z,35.15
2023-05-22T11:13:20.080Z,34.35
2023-05-22T11:15:47.051Z,35.91
2023-05-22T11:18:16.814Z,37.32
2023-05-22T11:20:44.613Z,36.37
2023-05-22T11:23:11.878Z,36.25
2023-05-22T11:25:41.539Z,37.21
2023-05-22T11:28:10.848Z,36.86
2023-05-22T11:30:38.521Z,37.84
2023-05-22T11:33:06.864Z,36.75
2023-05-22T11:35:34.322Z,35.30
2023-05-22T11:38:06.061Z,35.12
2023-05-22T11:40:33.017Z,34.64
2023-05-22T11:42:59.858Z,33.29
2023-05-22T11:45:27.287Z,34.88
2023-05-22T11:47:54.356Z,32.86
2023-05-22T11:50:40.193Z,34.42
2023-05-22T11:53:08.408Z,32.11
2023-05-22T11:55:35.275Z,32.30
2023-05-22T11:58:02.962Z,34.00
2023-05-22T12:00:31.609Z,32.38
2023-05-22T12:02:58.981Z,32.06
2023-05-22T12:05:25.911Z,32.73
2023-05-22T12:07:53.155Z,31.23
2023-05-22T12:10:20.107Z,33.36
2023-05-22T12:12:48.313Z,32.63
2023-05-22T12:15:20.461Z,31.43
2023-05-22T12:17:47.342Z,31.14
2023-05-22T12:20:17.057Z,32.09
2023-05-22T12:22:44.196Z,30.80
2023-05-22T12:25:15.668Z,29.49
2023-05-22T12:27:45.013Z,28.69
2023-05-22T12:30:13.911Z,28.84
2023-05-22T12:32:41.156Z,29.11
2023-05-22T12:35:16.170Z,28.60
2023-05-22T12:37:51.864Z,29.25
2023-05-22T12:40:19.311Z,28.99
2023-05-22T12:42:46.307Z,29.52
2023-05-22T12:45:13.740Z,29.75
2023-05-22T12:47:40.668Z,29.62
2023-05-22T12:50:08.427Z,29.24
2023-05-22T12:52:36.321Z,28.84
2023-05-22T12:55:03.520Z,27.72
2023-05-22T12:57:30.332Z,28.37
2023-05-22T12:59:57.178Z,28.48
2023-05-22T13:02:24.086Z,27.95
2023-05-22T13:04:51.081Z,28.29
2023-05-22T13:07:17.987Z,29.93
2023-05-22T13:09:44.861Z,29.54
2023-05-22T13:12:11.810Z,28.11
2023-05-22T13:14:40.870Z,29.36
2023-05-22T13:17:08.065Z,28.72
2023-05-22T13:19:35.179Z,28.96
2023-05-22T13:22:02.098Z,28.27
2023-05-22T13:24:28.992Z,28.50
2023-05-22T13:26:55.854Z,28.09
2023-05-22T13:29:22.665Z,27.44
2023-05-22T13:31:49.620Z,26.63
2023-05-22T13:34:16.616Z,27.66
2023-05-22T13:36:43.693Z,27.45
2023-05-22T13:39:10.559Z,26.76
2023-05-22T13:41:37.404Z,27.28
2023-05-22T13:44:04.221Z,26.72
2023-05-22T13:46:31.320Z,26.55
2023-05-22T13:48:59.755Z,26.11
2023-05-22T13:51:26.947Z,25.81
2023-05-22T13:53:53.925Z,25.98
2023-05-22T13:56:22.625Z,25.08
2023-05-22T13:58:49.846Z,24.15
2023-05-22T14:01:16.683Z,24.33
2023-05-22T14:03:44.890Z,25.25
2023-05-22T14:06:12.008Z,22.70
2023-05-22T14:08:38.944Z,23.59
2023-05-22T14:11:05.812Z,22.89
2023-05-22T14:13:32.715Z,22.51
2023-05-22T14:15:59.496Z,21.90
2023-05-22T14:18:26.284Z,22.72
2023-05-22T14:20:53.170Z,21.47
2023-05-22T14:23:20.062Z,22.75
2023-05-22T14:25:46.949Z,22.63
2023-05-22T14:28:14.339Z,22.70
2023-05-22T14:30:41.382Z,21.93
2023-05-22T14:33:08.235Z,24.18
2023-05-22T14:35:35.110Z,24.04
2023-05-22T14:38:02.298Z,24.68
2023-05-22T14:40:29.205Z,25.04
2023-05-22T14:42:56.143Z,26.06
2023-05-22T14:45:22.997Z,24.44
2023-05-22T14:47:49.907Z,24.37
2023-05-22T14:50:20.120Z,26.35
2023-05-22T14:52:48.698Z,26.17
2023-05-22T14:55:16.209Z,25.18
2023-05-22T14:57:43.105Z,27.56
2023-05-22T15:00:11.155Z,25.81
2023-05-22T15:02:38.201Z,26.87
2023-05-22T15:05:05.889Z,27.96
2023-05-22T15:07:43.093Z,27.85
2023-05-22T15:10:11.423Z,28.84
2023-05-22T15:12:38.303Z,29.01
2023-05-22T15:15:05.610Z,28.33
2023-05-22T15:17:32.715Z,28.46
2023-05-22T15:20:00.007Z,29.15
2023-05-22T15:22:26.754Z,28.82
2023-05-22T15:25:08.294Z,29.67
2023-05-22T15:27:35.887Z,31.11
2023-05-22T15:30:03.605Z,29.23
2023-05-22T15:32:32.326Z,28.84
2023-05-22T15:34:59.294Z,27.99
2023-05-22T15:37:26.155Z,28.97
2023-05-22T15:39:53.528Z,29.39
2023-05-22T15:42:20.441Z,29.14
2023-05-22T15:44:47.198Z,27.85
2023-05-22T15:47:14.064Z,26.87
2023-05-22T15:49:41.378Z,28.17
2023-05-22T15:52:08.195Z,30.52
2023-05-22T15:54:35.060Z,29.38
2023-05-22T15:57:01.829Z,29.96
2023-05-22T15:59:28.597Z,30.60
2023-05-22T16:01:55.387Z,30.07
2023-05-22T16:04:22.298Z,30.58
2023-05-22T16:06:49.227Z,30.44
2023-05-22T16:09:18.727Z,30.57
2023-05-22T16:11:45.827Z,31.32
2023-05-22T16:14:12.670Z,31.66
2023-05-22T16:16:39.625Z,32.29
2023-05-22T16:19:06.667Z,31.53
2023-05-22T16:21:33.844Z,31.84
2023-05-22T16:24:00.773Z,31.75
2023-05-22T16:26:27.593Z,31.52
2023-05-22T16:28:54.570Z,32.55
2023-05-22T16:31:21.587Z,32.98
2023-05-22T16:33:48.461Z,33.58
2023-05-22T16:36:15.286Z,34.36
2023-05-22T16:38:42.228Z,34.82
2023-05-22T16:41:09.241Z,35.73
2023-05-22T16:43:37.964Z,36.14
2023-05-22T16:46:04.781Z,36.34
2023-05-22T16:48:31.534Z,37.20
2023-05-22T16:50:58.306Z,37.90
2023-05-22T16:53:25.135Z,39.14
2023-05-22T16:55:52.277Z,39.90
2023-05-22T16:58:19.369Z,41.17
2023-05-22T17:00:46.324Z,41.17
2023-05-22T17:03:14.353Z,40.37
2023-05-22T17:05:41.537Z,38.83
2023-05-22T17:08:08.736Z,39.72
2023-05-22T17:10:35.674Z,40.09
2023-05-22T17:13:02.613Z,39.90
2023-05-22T17:15:29.400Z,41.46
2023-05-22T17:17:56.310Z,41.30
2023-05-22T17:20:26.146Z,41.89
2023-05-22T17:22:53.064Z,42.09
2023-05-22T17:25:19.954Z,42.12
2023-05-22T17:27:46.816Z,44.11
2023-05-22T17:30:13.696Z,43.69
2023-05-22T17:32:40.516Z,44.36
2023-05-22T17:35:07.630Z,44.56
2023-05-22T17:37:34.422Z,45.63
2023-05-22T17:40:01.361Z,45.32
2023-05-22T17:42:28.178Z,45.53
2023-05-22T17:44:55.126Z,46.25
2023-05-22T17:47:22.165Z,46.07
2023-05-22T17:49:49.050Z,46.88
2023-05-22T17:52:15.909Z,48.21
2023-05-22T17:54:42.791Z,47.98
2023-05-22T17:57:09.703Z,48.44
2023-05-22T17:59:38.458Z,48.85
2023-05-22T18:02:07.254Z,49.57
2023-05-22T18:04:34.092Z,49.96
2023-05-22T18:07:00.847Z,50.37
2023-05-22T18:09:27.637Z,50.53
2023-05-22T18:11:54.700Z,51.38
2023-05-22T18:14:21.481Z,52.06
2023-05-22T18:16:48.310Z,51.68
2023-05-22T18:19:15.286Z,52.82
2023-05-22T18:21:42.169Z,53.29
2023-05-22T18:24:09.053Z,52.77
2023-05-22T18:26:35.955Z,53.71
2023-05-22T18:29:02.761Z,53.57
2023-05-22T18:31:29.711Z,53.64
2023-05-22T18:33:56.730Z,53.66
2023-05-22T18:36:23.617Z,52.33
2023-05-22T18:38:50.494Z,50.58
2023-05-22T18:41:17.286Z,50.98
2023-05-22T18:43:44.112Z,50.42
2023-05-22T18:46:11.050Z,50.93
2023-05-22T18:48:37.950Z,50.36
2023-05-22T18:51:04.856Z,49.96
2023-05-22T18:53:31.796Z,50.65
2023-05-22T18:55:58.691Z,51.08
2023-05-22T18:58:25.858Z,51.74
2023-05-22T19:00:55.708Z,51.27
2023-05-22T19:03:22.674Z,51.61
2023-05-22T19:05:49.598Z,51.78
2023-05-22T19:08:16.541Z,51.93
2023-05-22T19:10:43.459Z,52.27
2023-05-22T19:13:10.268Z,54.17
2023-05-22T19:15:37.839Z,54.51
2023-05-22T19:18:04.686Z,55.52
2023-05-22T19:20:32.959Z,56.29
2023-05-22T19:22:59.866Z,56.43
2023-05-22T19:25:26.679Z,55.74
2023-05-22T19:27:53.527Z,55.59
2023-05-22T19:30:22.054Z,55.94
2023-05-22T19:32:51.448Z,56.59
2023-05-22T19:35:18.314Z,56.11
2023-05-22T19:37:45.657Z,56.49
2023-05-22T19:40:12.596Z,57.50
2023-05-22T19:42:40.138Z,57.44
2023-05-22T19:45:07.773Z,57.94
2023-05-22T19:47:34.682Z,57.92
2023-05-22T19:50:02.317Z,57.79
2023-05-22T19:52:29.113Z,57.74
2023-05-22T19:54:56.071Z,58.05
2023-05-22T19:57:22.934Z,58.19
2023-05-22T19:59:50.549Z,57.83
2023-05-22T20:02:17.420Z,58.28
2023-05-22T20:04:44.363Z,58.14
2023-05-22T20:07:11.206Z,58.53
2023-05-22T20:09:38.063Z,59.23
2023-05-22T20:12:05.261Z,59.47
2023-05-22T20:14:32.010Z,59.54
2023-05-22T20:17:03.064Z,59.87
2023-05-22T20:19:30.284Z,60.01
2023-05-22T20:21:58.473Z,60.52
2023-05-22T20:24:28.261Z,60.77
2023-05-22T20:26:55.133Z,61.54
2023-05-22T20:29:22.279Z,61.42
2023-05-22T20:31:49.424Z,61.36
2023-05-22T20:34:16.356Z,61.74
2023-05-22T20:36:45.190Z,62.19
2023-05-22T20:39:12.090Z,62.33
2023-05-22T20:41:38.892Z,63.03
2023-05-22T20:44:06.655Z,63.49
2023-05-22T20:46:34.008Z,63.88
2023-05-22T20:49:03.668Z,64.64
2023-05-22T20:51:32.866Z,65.25
2023-05-22T20:54:00.253Z,64.92
2023-05-22T20:56:27.723Z,64.69
2023-05-22T20:58:54.998Z,65.29
2023-05-22T21:01:25.146Z,65.30
2023-05-22T21:03:52.029Z,65.56
2023-05-22T21:06:19.457Z,65.09
2023-05-22T21:08:46.312Z,65.88
2023-05-22T21:11:13.271Z,65.49
2023-05-22T21:13:40.087Z,66.10
2023-05-22T21:16:07.161Z,66.60
2023-05-22T21:18:34.095Z,67.27
2023-05-22T21:21:01.042Z,67.09
2023-05-22T21:23:28.046Z,66.76
2023-05-22T21:25:54.834Z,67.12
2023-05-22T21:28:21.649Z,67.15
2023-05-22T21:30:48.496Z,67.07
2023-05-22T21:33:15.355Z,66.68
2023-05-22T21:35:42.195Z,67.18
2023-05-22T21:38:08.972Z,67.90
2023-05-22T21:40:35.820Z,68.20
2023-05-22T21:43:02.593Z,68.51
2023-05-22T21:45:29.460Z,68.89
2023-05-22T21:47:56.321Z,68.49
2023-05-22T21:50:23.172Z,68.82
2023-05-22T21:52:49.980Z,69.29
2023-05-22T21:55:16.828Z,69.93
2023-05-22T21:57:45.778Z,69.57
2023-05-22T22:00:13.493Z,69.41
2023-05-22T22:02:40.503Z,69.60
2023-05-22T22:05:07.915Z,69.33
2023-05-22T22:07:34.737Z,69.50
2023-05-22T22:10:01.567Z,69.27
2023-05-22T22:12:28.383Z,69.85
2023-05-22T22:14:55.241Z,69.85
2023-05-22T22:17:23.963Z,70.32
2023-05-22T22:19:53.781Z,70.23
2023-05-22T22:22:22.838Z,71.21
2023-05-22T22:24:50.007Z,71.33
2023-05-22T22:27:16.915Z,71.74
2023-05-22T22:29:43.949Z,71.85
2023-05-22T22:32:10.889Z,71.94
2023-05-22T22:34:37.830Z,72.68
2023-05-22T22:37:06.223Z,72.88
2023-05-22T22:39:33.187Z,73.96
2023-05-22T22:42:04.353Z,74.01
2023-05-22T22:44:31.989Z,74.20
2023-05-22T22:46:58.801Z,74.54
2023-05-22T22:49:25.611Z,74.94
2023-05-22T22:51:52.804Z,75.92
2023-05-22T22:54:19.694Z,75.70
2023-05-22T22:56:47.479Z,76.32
2023-05-22T22:59:14.324Z,76.32
2023-05-22T23:01:41.180Z,76.73
2023-05-22T23:04:08.203Z,76.65
2023-05-22T23:06:35.475Z,77.51
2023-05-22T23:09:04.054Z,77.65
2023-05-22T23:11:37.690Z,77.90
2023-05-22T23:14:08.658Z,78.39
2023-05-22T23:16:36.721Z,78.60
2023-05-22T23:19:04.472Z,78.67
2023-05-22T23:21:32.703Z,79.65
2023-05-22T23:24:00.828Z,79.57
2023-05-22T23:26:28.358Z,80.19
2023-05-22T23:28:55.277Z,80.20
2023-05-22T23:31:26.277Z,80.20
2023-05-22T23:33:53.359Z,80.47
2023-05-22T23:36:20.148Z,80.70
2023-05-22T23:38:47.336Z,80.50
2023-05-22T23:41:15.455Z,80.50
2023-05-22T23:43:42.588Z,81.02
2023-05-22T23:46:09.579Z,81.28
2023-05-22T23:48:36.309Z,81.45
2023-05-22T23:51:03.699Z,81.31
2023-05-22T23:53:30.574Z,81.75
2023-05-22T23:55:57.566Z,81.75
2023-05-22T23:58:24.331Z,82.29
